Flight Track Log - Related Links

Times and Time Zones

All times are in EDT time to prevent confusion due to time zone crossing. See the UAL6631 flight status page for this flight to view local times or setup timezone preferences in your user account.

Time Position Orientation Groundspeed Altitude Reporting Facility
EDT Latitude Longitude Course Direction KTS MPH feet Rate Location/Type
Sun 03:06:51 PM 29.9781 -95.2840 99° East 178 205 1,000  Level FlightAware ADS-B
Sun 03:06:55 PM 29.9788 -95.2805 77° East 181 208 1,000 857 Level FlightAware ADS-B
Sun 03:06:58 PM 29.9798 -95.2777 68° East 186 214 1,100 857 Climbing FlightAware ADS-B
Sun 03:07:02 PM 29.9815 -95.2742 61° Northeast 193 222 1,100 750 Level FlightAware ADS-B
Sun 03:07:06 PM 29.9840 -95.2704 53° Northeast 199 229 1,200 1,500 Climbing FlightAware ADS-B
Sun 03:07:10 PM 29.9866 -95.2676 43° Northeast 203 234 1,300 1,714 Climbing FlightAware ADS-B
Sun 03:07:13 PM 29.9891 -95.2653 39° Northeast 208 239 1,400 1,714 Climbing FlightAware ADS-B
Sun 03:07:17 PM 29.9921 -95.2633 30° Northeast 211 243 1,500 1,333 Climbing FlightAware ADS-B
Sun 03:07:22 PM 29.9965 -95.2610 24° Northeast 215 247 1,600 1,800 Climbing FlightAware ADS-B
Sun 03:07:37 PM 30.0112 -95.2540 22° Northeast 227 261 2,100 2,903 Climbing FlightAware ADS-B
Sun 03:07:53 PM 30.0268 -95.2465 23° Northeast 226 260 3,100 2,889 Climbing FlightAware ADS-B
Sun 03:08:04 PM 30.0373 -95.2412 24° Northeast 237 273 3,400 1,385 Climbing FlightAware ADS-B
Sun 03:08:19 PM 30.0534 -95.2330 24° Northeast 261 300 3,700 2,000 Climbing FlightAware ADS-B
Sun 03:08:34 PM 30.0706 -95.2242 24° Northeast 266 306 4,400 3,273 Climbing FlightAware ADS-B
Sun 03:08:41 PM 30.0784 -95.2200 25° Northeast 265 305 4,900 4,091 Climbing FlightAware ADS-B
Sun 03:08:56 PM 30.0945 -95.2099 28° Northeast 259 298 5,900 3,600 Climbing FlightAware ADS-B
Sun 03:09:11 PM 30.1101 -95.1992 31° Northeast 257 296 6,700 3,097 Climbing FlightAware ADS-B
Sun 03:09:27 PM 30.1260 -95.1885 30° Northeast 261 300 7,500 2,516 Climbing FlightAware ADS-B
Sun 03:09:42 PM 30.1420 -95.1777 30° Northeast 271 312 8,000 2,200 Climbing FlightAware ADS-B
Sun 03:09:57 PM 30.1585 -95.1667 30° Northeast 276 318 8,600 2,800 Climbing FlightAware ADS-B
Sun 03:10:12 PM 30.1757 -95.1554 30° Northeast 279 321 9,400 2,800 Climbing FlightAware ADS-B
Sun 03:10:27 PM 30.1927 -95.1442 30° Northeast 286 329 10,000 1,600 Climbing FlightAware ADS-B
Sun 03:10:57 PM 30.2299 -95.1205 29° Northeast 317 365 10,600 1,700 Climbing FlightAware ADS-B
Sun 03:11:27 PM 30.2700 -95.0943 29° Northeast 336 387 11,700 2,262 Climbing FlightAware ADS-B
Sun 03:11:58 PM 30.3122 -95.0666 30° Northeast 350 403 12,900 2,361 Climbing FlightAware ADS-B
Sun 03:12:28 PM 30.3556 -95.0380 30° Northeast 359 413 14,100 2,300 Climbing FlightAware ADS-B
Sun 03:12:58 PM 30.4002 -95.0087 30° Northeast 370 426 15,200 2,129 Climbing FlightAware ADS-B
Sun 03:13:30 PM 30.4463 -94.9738 33° Northeast 382 440 16,300 2,129 Climbing FlightAware ADS-B
Sun 03:14:00 PM 30.4919 -94.9390 33° Northeast 391 450 17,400 2,226 Climbing FlightAware ADS-B
Sun 03:14:32 PM 30.5395 -94.9027 33° Northeast 395 455 18,600 2,226 Climbing FlightAware ADS-B
Sun 03:15:02 PM 30.5864 -94.8667 33° Northeast 398 458 19,700 2,066 Climbing FlightAware ADS-B
Sun 03:15:33 PM 30.6337 -94.8303 34° Northeast 406 467 20,700 1,869 Climbing FlightAware ADS-B
Sun 03:16:03 PM 30.6816 -94.7933 34° Northeast 413 475 21,600 1,770 Climbing FlightAware ADS-B
Sun 03:16:34 PM 30.7313 -94.7550 34° Northeast 421 484 22,500 1,406 Climbing FlightAware ADS-B
Sun 03:17:07 PM 30.7854 -94.7135 33° Northeast 431 496 23,100 1,200 Climbing FlightAware ADS-B
Sun 03:17:44 PM 30.8479 -94.6652 34° Northeast 440 506 23,900 1,324 Climbing FlightAware ADS-B
Sun 03:18:15 PM 30.9017 -94.6236 34° Northeast 453 521 24,600 1,352 Climbing FlightAware ADS-B
Sun 03:18:55 PM 30.9726 -94.5688 34° Northeast 463 533 25,500 1,250 Climbing FlightAware ADS-B
Sun 03:19:27 PM 31.0306 -94.5238 34° Northeast 471 542 26,100 1,143 Climbing FlightAware ADS-B
Sun 03:19:58 PM 31.0870 -94.4798 34° Northeast 480 552 26,700 1,180 Climbing FlightAware ADS-B
Sun 03:20:28 PM 31.1431 -94.4364 34° Northeast 487 560 27,300 1,108 Climbing FlightAware ADS-B
Sun 03:21:03 PM 31.2080 -94.3859 34° Northeast 491 565 27,900 1,341 Climbing FlightAware ADS-B
Sun 03:21:53 PM 31.3046 -94.3104 34° Northeast 496 571 29,200 1,463 Climbing FlightAware ADS-B
Sun 03:22:25 PM 31.3643 -94.2638 34° Northeast 495 570 29,900 1,102 Climbing FlightAware ADS-B
Sun 03:23:31 PM 31.4906 -94.1648 34° Northeast 496 571 31,000 532 Climbing FlightAware ADS-B
Sun 03:24:29 PM 31.6022 -94.0769 34° Northeast 497 572 31,000  Level FlightAware ADS-B
Sun 03:25:17 PM 31.6924 -94.0058 34° Northeast 496 571 31,000  Level FlightAware ADS-B
Sun 03:25:48 PM 31.7514 -93.9591 34° Northeast 496 571 31,000  Level FlightAware ADS-B
Sun 03:26:23 PM 31.8180 -93.9063 34° Northeast 497 572 31,000  Level FlightAware ADS-B
Sun 03:26:47 PM 31.8422 -93.8878 34° Northeast 494 568 31,000  Level Houston Center
Sun 03:27:34 PM 31.9364 -93.8125 34° Northeast 491 565 31,000  Level Fort Worth Center
Sun 03:28:34 PM 32.0397 -93.7056 41° Northeast 497 572 31,000  Level Fort Worth Center
Sun 03:29:34 PM 32.1236 -93.5719 53° Northeast 488 562 31,000  Level Fort Worth Center
Sun 03:30:34 PM 32.2047 -93.4336 55° Northeast 498 573 31,000  Level Fort Worth Center
Sun 03:31:34 PM 32.2903 -93.3022 52° Northeast 508 585 31,000  Level Fort Worth Center
Sun 03:32:34 PM 32.3717 -93.1706 54° Northeast 502 578 31,000  Level Fort Worth Center
Sun 03:33:34 PM 32.4569 -93.0433 52° Northeast 497 572 31,000 100 Level Fort Worth Center
Sun 03:34:34 PM 32.5417 -92.9039 54° Northeast 497 572 31,200 550 Climbing Fort Worth Center
Sun 03:35:34 PM 32.6328 -92.7636 52° Northeast 510 587 32,100 843 Climbing Fort Worth Center
Sun 03:37:32 PM 32.8106 -92.4756 54° Northeast 530 610 33,700 742 Climbing Memphis Center
Sun 03:38:32 PM 32.9008 -92.3292 54° Northeast 530 610 34,300 650 Climbing Memphis Center
Sun 03:39:32 PM 32.9947 -92.1828 53° Northeast 540 621 35,000 350 Climbing Memphis Center
Sun 03:40:32 PM 33.0867 -92.0358 53° Northeast 545 627 35,000  Level Memphis Center
Sun 03:41:32 PM 33.1614 -91.9033 56° Northeast 539 620 35,000  Level Memphis Center
Sun 03:42:32 PM 33.2528 -91.7583 53° Northeast 539 620 35,000 250 Level Memphis Center
Sun 03:43:32 PM 33.3400 -91.6106 55° Northeast 539 620 35,500 500 Climbing Memphis Center
Sun 03:44:32 PM 33.4269 -91.4672 54° Northeast 539 620 36,000 750 Climbing Memphis Center
Sun 03:45:32 PM 33.5136 -91.3214 54° Northeast 539 620 37,000 500 Climbing Memphis Center
Sun 03:46:32 PM 33.6022 -91.1778 53° Northeast 539 620 37,000  Level Memphis Center
Sun 03:47:32 PM 33.6889 -91.0336 54° Northeast 539 620 37,000  Level Memphis Center
Sun 03:48:32 PM 33.7772 -90.8894 54° Northeast 533 613 37,000  Level Memphis Center
Sun 03:49:32 PM 33.8694 -90.7275 56° Northeast 541 623 37,000  Level Memphis Center
Sun 03:50:32 PM 33.9575 -90.5825 54° Northeast 536 617 37,000  Level Memphis Center
Sun 03:51:32 PM 34.0433 -90.4375 54° Northeast 536 617 37,000  Level Memphis Center
Sun 03:52:32 PM 34.1289 -90.2869 56° Northeast 541 623 37,000  Level Memphis Center
Sun 03:53:32 PM 34.2164 -90.1411 54° Northeast 541 623 37,000  Level Memphis Center
Sun 03:54:32 PM 34.3017 -89.9925 55° Northeast 541 623 37,000  Level Memphis Center
Sun 03:55:32 PM 34.3867 -89.8411 56° Northeast 535 616 37,000  Level Memphis Center
Sun 03:56:32 PM 34.4756 -89.6919 54° Northeast 540 621 37,000  Level Memphis Center
Sun 03:57:32 PM 34.5603 -89.5400 56° Northeast 540 621 37,000  Level Memphis Center
Sun 03:58:32 PM 34.6467 -89.3878 55° Northeast 540 621 37,000  Level Memphis Center
Sun 03:59:32 PM 34.7331 -89.2375 55° Northeast 540 621 37,000  Level Memphis Center
Sun 04:00:32 PM 34.8192 -89.0872 55° Northeast 540 621 37,000  Level Memphis Center
Sun 04:01:32 PM 34.9053 -88.9392 55° Northeast 540 621 37,000  Level Memphis Center
Sun 04:02:32 PM 34.9889 -88.7881 56° Northeast 535 616 37,000  Level Memphis Center
Sun 04:03:32 PM 35.0747 -88.6419 54° Northeast 535 616 37,000  Level Memphis Center
Sun 04:04:32 PM 35.1561 -88.4956 56° Northeast 528 608 37,000  Level Memphis Center
Sun 04:05:32 PM 35.2272 -88.3719 55° Northeast 520 598 37,000  Level Memphis Center
Sun 04:06:32 PM 35.3081 -88.2250 56° Northeast 520 598 37,000  Level Memphis Center
Sun 04:07:32 PM 35.3889 -88.0778 56° Northeast 520 598 37,000  Level Memphis Center
Sun 04:08:32 PM 35.4756 -87.9147 57° Northeast 514 592 37,000  Level Memphis Center
Sun 04:09:32 PM 35.5558 -87.7669 56° Northeast 514 592 37,000  Level Memphis Center
Sun 04:15:18 PM 35.9229 -86.8247 56° Northeast 530 610 37,000  Level FlightAware ADS-B
Sun 04:15:48 PM 35.9524 -86.7419 66° East 530 610 37,000  Level FlightAware ADS-B
Sun 04:16:19 PM 35.9834 -86.6547 66° East 531 611 37,000  Level FlightAware ADS-B
Sun 04:16:50 PM 36.0138 -86.5696 66° East 532 612 37,000  Level FlightAware ADS-B
Sun 04:17:24 PM 36.0472 -86.4756 66° East 533 613 37,000  Level FlightAware ADS-B
Sun 04:17:54 PM 36.0768 -86.3913 66° East 535 616 37,000  Level FlightAware ADS-B
Sun 04:18:24 PM 36.1065 -86.3072 66° East 535 616 37,000  Level FlightAware ADS-B
Sun 04:18:54 PM 36.1362 -86.2230 66° East 535 616 37,000  Level FlightAware ADS-B
Sun 04:19:24 PM 36.1660 -86.1386 66° East 536 617 37,000  Level FlightAware ADS-B
Sun 04:20:01 PM 36.2014 -86.0364 67° East 536 617 37,000  Level FlightAware ADS-B
Sun 04:20:34 PM 36.2336 -85.9432 67° East 537 618 37,000  Level FlightAware ADS-B
Sun 04:21:04 PM 36.2632 -85.8581 67° East 537 618 37,000  Level FlightAware ADS-B
Sun 04:22:25 PM 36.3425 -85.6288 67° East 536 617 37,000  Level FlightAware ADS-B
Sun 04:22:56 PM 36.3724 -85.5421 67° East 537 618 37,000  Level FlightAware ADS-B
Sun 04:23:26 PM 36.4016 -85.4570 67° East 537 618 37,000  Level FlightAware ADS-B
Sun 04:23:58 PM 36.4330 -85.3673 66° East 537 618 37,000  Level FlightAware ADS-B
Sun 04:24:37 PM 36.4707 -85.2574 67° East 538 619 37,000  Level FlightAware ADS-B
Sun 04:25:07 PM 36.5004 -85.1704 67° East 538 619 37,000  Level FlightAware ADS-B
Sun 04:25:48 PM 36.5394 -85.0546 67° East 541 623 37,000  Level FlightAware ADS-B
Sun 04:26:21 PM 36.5708 -84.9612 67° East 542 624 37,000  Level FlightAware ADS-B
Sun 04:26:52 PM 36.6010 -84.8703 67° East 543 625 37,000  Level FlightAware ADS-B
Sun 04:27:22 PM 36.6299 -84.7831 68° East 545 627 37,000  Level FlightAware ADS-B
Sun 04:27:52 PM 36.6590 -84.6958 67° East 544 626 37,000  Level FlightAware ADS-B
Sun 04:28:23 PM 36.6883 -84.6076 67° East 544 626 37,000  Level FlightAware ADS-B
Sun 04:28:53 PM 36.7176 -84.5196 67° East 545 627 37,000  Level FlightAware ADS-B
Sun 04:29:25 PM 36.7484 -84.4265 68° East 546 628 37,000  Level FlightAware ADS-B
Sun 04:29:56 PM 36.7777 -84.3378 68° East 547 629 37,000  Level FlightAware ADS-B
Sun 04:30:26 PM 36.8066 -84.2504 68° East 548 631 37,000  Level FlightAware ADS-B
Sun 04:30:56 PM 36.8356 -84.1620 68° East 548 631 37,000  Level FlightAware ADS-B
Sun 04:31:27 PM 36.8648 -84.0725 68° East 548 631 37,000  Level FlightAware ADS-B
Sun 04:31:58 PM 36.8941 -83.9821 68° East 548 631 37,000  Level FlightAware ADS-B
Sun 04:32:32 PM 36.9274 -83.8803 68° East 549 632 37,000  Level FlightAware ADS-B
Sun 04:33:02 PM 36.9558 -83.7926 68° East 549 632 37,000  Level FlightAware ADS-B
Sun 04:33:33 PM 36.9852 -83.7019 68° East 549 632 37,000  Level FlightAware ADS-B
Sun 04:34:04 PM 37.0145 -83.6105 68° East 548 631 37,000  Level FlightAware ADS-B
Sun 04:34:35 PM 37.0431 -83.5209 68° East 548 631 37,000  Level FlightAware ADS-B
Sun 04:35:08 PM 37.0740 -83.4238 68° East 547 629 37,000  Level FlightAware ADS-B
Sun 04:35:41 PM 37.1052 -83.3263 68° East 545 627 37,000  Level FlightAware ADS-B
Sun 04:36:14 PM 37.1360 -83.2298 68° East 545 627 37,000  Level FlightAware ADS-B
Sun 04:37:05 PM 37.1837 -83.0810 68° East 546 628 37,000  Level FlightAware ADS-B
Sun 04:37:37 PM 37.2125 -82.9887 69° East 545 627 37,000  Level FlightAware ADS-B
Sun 04:38:15 PM 37.2475 -82.8759 69° East 545 627 37,000  Level FlightAware ADS-B
Sun 04:38:46 PM 37.2758 -82.7852 69° East 543 625 37,000  Level FlightAware ADS-B
Sun 04:39:17 PM 37.3041 -82.6945 69° East 543 625 37,000  Level FlightAware ADS-B
Sun 04:39:50 PM 37.3343 -82.5974 69° East 541 623 37,000  Level FlightAware ADS-B
Sun 04:40:58 PM 37.3963 -82.3980 69° East 541 623 37,000  Level FlightAware ADS-B
Sun 04:41:40 PM 37.4342 -82.2750 69° East 540 621 37,000  Level FlightAware ADS-B
Sun 04:42:10 PM 37.4611 -82.1875 69° East 539 620 37,000  Level FlightAware ADS-B
Sun 04:42:41 PM 37.4881 -82.0990 69° East 538 619 37,000  Level FlightAware ADS-B
Sun 04:43:39 PM 37.5394 -81.9299 69° East 538 619 37,000  Level FlightAware ADS-B
Sun 04:44:20 PM 37.5759 -81.8087 69° East 538 619 37,000  Level FlightAware ADS-B
Sun 04:45:02 PM 37.6100 -81.6960 69° East 535 616 37,000  Level FlightAware ADS-B
Sun 04:45:47 PM 37.6510 -81.5590 69° East 534 615 37,000  Level FlightAware ADS-B
Sun 04:45:57 PM 37.6605 -81.5269 69° East 535 616 37,000  Level FlightAware ADS-B
Sun 04:46:27 PM 37.6850 -81.4440 69° East 533 613 37,000  Level FlightAware ADS-B
Sun 04:47:07 PM 37.7200 -81.3270 69° East 531 611 37,000  Level FlightAware ADS-B
Sun 04:47:52 PM 37.7580 -81.1980 70° East 533 613 37,000  Level FlightAware ADS-B
Sun 04:48:32 PM 37.7820 -81.0790 76° East 534 615 37,000  Level FlightAware ADS-B
Sun 04:49:12 PM 37.7920 -80.9560 84° East 533 613 37,000  Level FlightAware ADS-B
Sun 04:49:57 PM 37.8010 -80.8120 85° East 532 612 37,000  Level FlightAware ADS-B
Sun 04:50:37 PM 37.8090 -80.6910 85° East 531 611 37,000  Level FlightAware ADS-B
Sun 04:51:27 PM 37.8190 -80.5390 85° East 531 611 37,000  Level FlightAware ADS-B
Sun 04:52:12 PM 37.8280 -80.4060 85° East 531 611 37,000  Level FlightAware ADS-B
Sun 04:52:52 PM 37.8350 -80.3010 85° East 531 611 37,000  Level FlightAware ADS-B
Sun 04:53:47 PM 37.8460 -80.1090 86° East 534 615 37,000  Level FlightAware ADS-B
Sun 04:54:52 PM 37.8580 -79.9180 85° East 536 617 37,000  Level FlightAware ADS-B
Sun 04:55:32 PM 37.8650 -79.8110 85° East 536 617 37,000  Level FlightAware ADS-B
Sun 04:56:12 PM 37.8710 -79.6560 87° East 539 620 37,000  Level FlightAware ADS-B
Sun 04:56:52 PM 37.8780 -79.5250 86° East 537 618 37,000  Level FlightAware ADS-B
Sun 04:57:37 PM 37.8860 -79.3800 86° East 538 619 37,000  Level FlightAware ADS-B
Sun 04:58:47 PM 37.8980 -79.1630 86° East 536 617 37,000  Level FlightAware ADS-B
Sun 04:59:32 PM 37.9110 -79.0230 83° East 536 617 37,000  Level FlightAware ADS-B
Sun 05:00:12 PM 37.9260 -78.8970 81° East 535 616 37,000  Level FlightAware ADS-B
Sun 05:00:52 PM 37.9410 -78.7750 81° East 536 617 37,000  Level FlightAware ADS-B
Sun 05:01:37 PM 37.9570 -78.6330 82° East 532 612 37,000  Level FlightAware ADS-B
Sun 05:02:17 PM 37.9720 -78.5100 81° East 532 612 37,000  Level FlightAware ADS-B
Sun 05:03:02 PM 37.9880 -78.3760 81° East 531 611 37,000  Level FlightAware ADS-B
Sun 05:03:42 PM 38.0020 -78.2550 82° East 531 611 37,000  Level FlightAware ADS-B
Sun 05:04:22 PM 38.0290 -78.1310 75° East 531 611 37,000  Level FlightAware ADS-B
Sun 05:05:07 PM 38.0860 -78.0080 59° Northeast 528 608 37,000  Level FlightAware ADS-B
Sun 05:05:22 PM 38.1069 -77.9665 57° Northeast 529 609 37,000  Level FlightAware ADS-B
Sun 05:05:52 PM 38.1420 -77.8960 58° Northeast 528 608 37,000  Level FlightAware ADS-B
Sun 05:05:56 PM 38.1513 -77.8772 58° Northeast 528 608 37,000  Level FlightAware ADS-B
Sun 05:06:32 PM 38.1950 -77.7900 57° Northeast 526 605 37,000  Level FlightAware ADS-B
Sun 05:06:39 PM 38.2066 -77.7661 58° Northeast 526 605 37,000  Level FlightAware ADS-B
Sun 05:07:12 PM 38.2470 -77.6850 58° Northeast 525 604 37,000  Level FlightAware ADS-B
Sun 05:07:24 PM 38.2654 -77.6477 58° Northeast 525 604 37,000  Level FlightAware ADS-B
Sun 05:07:54 PM 38.3041 -77.5695 58° Northeast 524 603 37,000  Level FlightAware ADS-B
Sun 05:08:37 PM 38.3580 -77.4600 58° Northeast 523 602 37,000  Level FlightAware ADS-B
Sun 05:08:44 PM 38.3678 -77.4411 57° Northeast 525 604 37,000  Level FlightAware ADS-B
Sun 05:09:15 PM 38.4147 -77.3677 51° Northeast 519 597 37,000  Level FlightAware ADS-B
Sun 05:09:46 PM 38.4638 -77.2960 49° Northeast 520 598 37,000  Level FlightAware ADS-B
Sun 05:10:18 PM 38.5145 -77.2215 49° Northeast 518 596 37,000  Level FlightAware ADS-B
Sun 05:10:49 PM 38.5626 -77.1503 49° Northeast 520 598 37,000  Level FlightAware ADS-B
Sun 05:11:20 PM 38.6118 -77.0776 49° Northeast 518 596 37,000  Level FlightAware ADS-B
Sun 05:11:55 PM 38.6660 -76.9972 49° Northeast 519 597 37,000  Level FlightAware ADS-B
Sun 05:12:26 PM 38.7144 -76.9254 49° Northeast 520 598 37,000  Level FlightAware ADS-B
Sun 05:12:56 PM 38.7619 -76.8552 49° Northeast 520 598 37,000  Level FlightAware ADS-B
Sun 05:13:27 PM 38.8103 -76.7830 49° Northeast 523 602 37,000 -269 Level FlightAware ADS-B
Sun 05:14:03 PM 38.8673 -76.6974 49° Northeast 524 603 36,700 -696 Descending FlightAware ADS-B
Sun 05:14:36 PM 38.9188 -76.6198 50° Northeast 530 610 36,200 -1,031 Descending FlightAware ADS-B
Sun 05:15:07 PM 38.9698 -76.5436 49° Northeast 534 615 35,600 -1,839 Descending FlightAware ADS-B
Sun 05:15:38 PM 39.0187 -76.4703 49° Northeast 534 615 34,300 -2,754 Descending FlightAware ADS-B
Sun 05:16:08 PM 39.0672 -76.3961 50° Northeast 539 620 32,800 -3,049 Descending FlightAware ADS-B
Sun 05:16:39 PM 39.1169 -76.3207 50° Northeast 542 624 31,200 -3,000 Descending FlightAware ADS-B
Sun 05:17:10 PM 39.1668 -76.2461 49° Northeast 543 625 29,700 -2,906 Descending FlightAware ADS-B
Sun 05:17:43 PM 39.2209 -76.1641 50° Northeast 541 623 28,100 -2,679 Descending FlightAware ADS-B
Sun 05:18:06 PM 39.2581 -76.1080 49° Northeast 537 618 27,200 -1,527 Descending FlightAware ADS-B
Sun 05:18:38 PM 39.3153 -76.0372 44° Northeast 531 611 26,700 -952 Descending FlightAware ADS-B
Sun 05:19:09 PM 39.3702 -75.9720 43° Northeast 531 611 26,200 -1,161 Descending FlightAware ADS-B
Sun 05:19:40 PM 39.4263 -75.9054 43° Northeast 526 605 25,500 -1,180 Descending FlightAware ADS-B
Sun 05:20:10 PM 39.4799 -75.8419 42° Northeast 509 586 25,000 -500 Descending FlightAware ADS-B
Sun 05:20:40 PM 39.5320 -75.7802 42° Northeast 510 587 25,000  Level FlightAware ADS-B
Sun 05:21:10 PM 39.5846 -75.7179 42° Northeast 514 592 25,000  Level FlightAware ADS-B
Sun 05:21:42 PM 39.6400 -75.6522 42° Northeast 517 595 25,000  Level FlightAware ADS-B
Sun 05:22:15 PM 39.6977 -75.5834 43° Northeast 517 595 25,000  Level FlightAware ADS-B
Sun 05:22:45 PM 39.7504 -75.5200 43° Northeast 518 596 25,000 -400 Level FlightAware ADS-B
Sun 05:23:15 PM 39.8030 -75.4564 43° Northeast 509 586 24,600 -2,066 Descending FlightAware ADS-B
Sun 05:23:46 PM 39.8564 -75.3924 43° Northeast 515 593 22,900 -3,639 Descending FlightAware ADS-B
Sun 05:24:16 PM 39.9099 -75.3278 43° Northeast 531 611 20,900 -3,290 Descending FlightAware ADS-B
Sun 05:24:48 PM 39.9675 -75.2573 43° Northeast 517 595 19,500 -2,571 Descending FlightAware ADS-B
Sun 05:25:19 PM 40.0187 -75.1944 43° Northeast 492 566 18,200 -2,806 Descending FlightAware ADS-B
Sun 05:25:50 PM 40.0697 -75.1319 43° Northeast 476 548 16,600 -3,000 Descending FlightAware ADS-B
Sun 05:26:21 PM 40.1174 -75.0739 43° Northeast 459 528 15,100 -3,049 Descending FlightAware ADS-B
Sun 05:26:51 PM 40.1642 -75.0171 43° Northeast 447 514 13,500 -3,148 Descending FlightAware ADS-B
Sun 05:27:22 PM 40.2100 -74.9611 43° Northeast 432 497 11,900 -3,048 Descending FlightAware ADS-B
Sun 05:27:54 PM 40.2555 -74.9049 43° Northeast 412 474 10,300 -1,714 Descending FlightAware ADS-B
Sun 05:28:25 PM 40.2938 -74.8521 46° Northeast 369 425 10,100 -316 Descending FlightAware ADS-B
Sun 05:28:51 PM 40.3220 -74.8119 47° Northeast 338 389 10,000 -732 Descending FlightAware ADS-B
Sun 05:29:06 PM 40.3380 -74.7889 48° Northeast 325 374 9,600 -2,438 Descending FlightAware ADS-B
Sun 05:29:23 PM 40.3545 -74.7659 47° Northeast 318 366 8,700 -2,813 Descending FlightAware ADS-B
Sun 05:29:38 PM 40.3698 -74.7442 47° Northeast 314 361 8,100 -2,438 Descending FlightAware ADS-B
Sun 05:29:55 PM 40.3851 -74.7226 47° Northeast 289 333 7,400 -2,545 Descending FlightAware ADS-B
Sun 05:30:11 PM 40.3998 -74.7024 46° Northeast 286 329 6,700 -2,357 Descending FlightAware ADS-B
Sun 05:30:23 PM 40.4111 -74.6870 46° Northeast 277 319 6,300 -1,765 Descending FlightAware ADS-B
Sun 05:30:28 PM 40.4154 -74.6823 40° Northeast 275 316 6,200 -500 Descending FlightAware ADS-B
Sun 05:30:35 PM 40.4225 -74.6758 35° Northeast 274 315 6,200  Level FlightAware ADS-B
Sun 05:30:40 PM 40.4286 -74.6713 29° Northeast 276 318 6,200  Level FlightAware ADS-B
Sun 05:30:45 PM 40.4348 -74.6677 24° Northeast 275 316 6,200  Level FlightAware ADS-B
Sun 05:30:51 PM 40.4407 -74.6650 19° North 274 315 6,200 -462 Level FlightAware ADS-B
Sun 05:30:58 PM 40.4497 -74.6622 13° North 269 310 6,100  Descending FlightAware ADS-B
Sun 05:31:14 PM 40.4688 -74.6572 11° North 269 310 6,200 188 Climbing FlightAware ADS-B
Sun 05:31:30 PM 40.4889 -74.6517 12° North 268 308 6,200  Level FlightAware ADS-B
Sun 05:31:43 PM 40.5049 -74.6476 11° North 267 307 6,200 -207 Level FlightAware ADS-B
Sun 05:31:59 PM 40.5240 -74.6429 11° North 271 312 6,100  Descending FlightAware ADS-B
Sun 05:32:15 PM 40.5441 -74.6373 12° North 268 308 6,200  Climbing FlightAware ADS-B
Sun 05:32:50 PM 40.5855 -74.6260 12° North 263 303 6,100 -115 Descending FlightAware ADS-B
Sun 05:33:07 PM 40.6058 -74.6203 12° North 268 308 6,100 182 Level FlightAware ADS-B
Sun 05:33:23 PM 40.6256 -74.6151 11° North 270 311 6,200  Climbing FlightAware ADS-B
Sun 05:33:34 PM 40.6394 -74.6115 11° North 268 308 6,100 -222 Descending FlightAware ADS-B
Sun 05:33:50 PM 40.6588 -74.6063 11° North 268 308 6,100  Level FlightAware ADS-B
Sun 05:34:06 PM 40.6774 -74.6012 12° North 265 305 6,100 194 Level FlightAware ADS-B
Sun 05:34:21 PM 40.6949 -74.5908 24° Northeast 275 316 6,200  Climbing FlightAware ADS-B
Sun 05:34:26 PM 40.7009 -74.5857 33° Northeast 278 320 6,100 -1,125 Descending FlightAware ADS-B
Sun 05:35:09 PM 40.7473 -74.5464 33° Northeast 280 322 5,300 -923 Descending FlightAware ADS-B
Sun 05:35:31 PM 40.7702 -74.5271 33° Northeast 271 312 5,100 -158 Descending FlightAware ADS-B
Sun 05:35:47 PM 40.7870 -74.5128 33° Northeast 271 312 5,200  Climbing FlightAware ADS-B
Sun 05:36:10 PM 40.8124 -74.4916 32° Northeast 280 322 5,100  Descending FlightAware ADS-B
Sun 05:36:26 PM 40.8292 -74.4774 33° Northeast 274 315 5,200 105 Climbing FlightAware ADS-B
Sun 05:37:07 PM 40.8660 -74.4360 40° Northeast 279 321 5,200  Level FlightAware ADS-B
Sun 05:37:14 PM 40.8746 -74.4231 49° Northeast 275 316 5,200  Level FlightAware ADS-B
Sun 05:37:18 PM 40.8772 -74.4189 51° Northeast 279 321 5,200 -140 Level FlightAware ADS-B
Sun 05:37:57 PM 40.9080 -74.3690 51° Northeast 279 321 5,100 -162 Descending FlightAware ADS-B
Sun 05:38:32 PM 40.9350 -74.3250 51° Northeast 280 322 5,000 -533 Descending FlightAware ADS-B
Sun 05:38:42 PM 40.9435 -74.3025 63° Northeast 284 327 4,700 -1,286 Descending FlightAware ADS-B
Sun 05:38:46 PM 40.9448 -74.2954 76° East 287 330 4,700 -1,000 Level FlightAware ADS-B
Sun 05:38:54 PM 40.9457 -74.2824 85° East 289 333 4,500 -1,091 Descending FlightAware ADS-B
Sun 05:38:57 PM 40.9452 -74.2766 97° East 290 334 4,500 -857 Level FlightAware ADS-B
Sun 05:39:01 PM 40.9443 -74.2701 100° East 291 335 4,400 -1,200 Descending FlightAware ADS-B
Sun 05:39:07 PM 40.9416 -74.2601 110° East 290 334 4,300 -1,333 Descending FlightAware ADS-B
Sun 05:39:10 PM 40.9395 -74.2546 117° Southeast 289 333 4,200 -353 Descending FlightAware ADS-B
Sun 05:39:24 PM 40.9294 -74.2343 123° Southeast 289 333 4,200  Level FlightAware ADS-B
Sun 05:39:56 PM 40.9071 -74.1873 122° Southeast 284 327 4,200  Level FlightAware ADS-B
Sun 05:40:11 PM 40.8966 -74.1643 121° Southeast 287 330 4,200 -182 Level FlightAware ADS-B
Sun 05:40:29 PM 40.8842 -74.1375 121° Southeast 287 330 4,100 -913 Descending FlightAware ADS-B
Sun 05:40:57 PM 40.8650 -74.0968 122° Southeast 280 322 3,500 -1,355 Descending FlightAware ADS-B
Sun 05:41:00 PM 40.8626 -74.0921 124° Southeast 270 311 3,400 -1,500 Descending FlightAware ADS-B
Sun 05:41:05 PM 40.8589 -74.0858 128° Southeast 267 307 3,300 -857 Descending FlightAware ADS-B
Sun 05:41:14 PM 40.8513 -74.0776 141° Southeast 250 288 3,200 -857 Descending FlightAware ADS-B
Sun 05:41:19 PM 40.8457 -74.0745 157° South 238 274 3,100 -750 Descending FlightAware ADS-B
Sun 05:41:22 PM 40.8424 -74.0737 170° South 231 266 3,100  Level FlightAware ADS-B
Sun 05:41:32 PM 40.8327 -74.0748 185° South 214 246 3,100 375 Level FlightAware ADS-B
Sun 05:41:38 PM 40.8272 -74.0770 197° South 206 237 3,200 316 Climbing FlightAware ADS-B
Sun 05:41:51 PM 40.8164 -74.0816 198° South 190 219 3,200 -571 Level FlightAware ADS-B
Sun 05:42:20 PM 40.7919 -74.0862 188° South 183 211 2,800 -769 Descending FlightAware ADS-B
Sun 05:42:30 PM 40.7840 -74.0854 176° South 179 206 2,700 -857 Descending FlightAware ADS-B
Sun 05:42:41 PM 40.7751 -74.0847 177° South 177 204 2,500 -818 Descending FlightAware ADS-B
Sun 05:42:52 PM 40.7658 -74.0839 176° South 172 198 2,400 -545 Descending FlightAware ADS-B

Login

Don't have an account? Register now (free) for customized features, flight alerts, and more!